Home   Weather   Nepal   Kathmandu   Past weeks
Flag for Nepal

Past Weather in Kathmandu, Nepal — Yesterday and Last 2 Weeks

Currently: 45 °F. Passing clouds. (Weather station: Kathmandu Airport, Nepal). See more current weather

Past Weather in Kathmandu — Graph

°F

Kathmandu Temperature Yesterday

Maximum temperature yesterday: 70 °F (at 12:45 pm)
Minimum temperature yesterday: 45 °F (at 6:45 am)
Average temperature yesterday: 57 °F

High & Low Weather Summary for the Past Weeks

 TemperatureHumidityPressure
High72 °F (Feb 13, 1:45 pm)100% (Feb 23, 4:45 am)30.30 "Hg (Feb 23, 4:45 am)
Low41 °F (Feb 23, 4:45 am)17% (Feb 13, 12:45 pm)29.89 "Hg (Feb 21, 2:45 pm)
Average56 °F61%30.11 "Hg
* Reported Feb 13 2:45 am — Feb 28 2:45 am, Kathmandu. Weather by CustomWeather, © 2024

Note: Actual official high and low records may vary slightly from our data, if they occured in-between our weather recording intervals... More about our weather records

Kathmandu Weather History for the Previous 24 Hours

Scroll right to see more
 ConditionsComfort  
Time TempWeatherWind HumidityBarometerVisibility
2:45 am
Wed, Feb 28
46 °FPassing clouds.3 mph71%30.04 "Hg4 mi
2:15 am46 °FPassing clouds.No wind71%30.07 "Hg4 mi
1:45 am46 °FPassing clouds.5 mph71%30.07 "Hg4 mi
1:15 am48 °FPassing clouds.3 mph66%30.07 "Hg4 mi
12:45 am48 °FPassing clouds.5 mph66%30.07 "Hg4 mi
12:15 am50 °FPassing clouds.3 mph62%30.07 "Hg4 mi
11:45 pm
Tue, Feb 27
50 °FPassing clouds.No wind62%30.07 "Hg4 mi
11:15 pm50 °FPassing clouds.3 mph62%30.09 "Hg4 mi
10:45 pm52 °FPassing clouds.3 mph58%30.09 "Hg5 mi
10:15 pm52 °FPassing clouds.2 mph58%30.09 "Hg5 mi
9:45 pm52 °FPassing clouds.3 mph58%30.09 "Hg5 mi
9:15 pm55 °FPassing clouds.No wind41%30.07 "Hg5 mi
8:45 pm55 °FPassing clouds.2 mph51%30.07 "Hg5 mi
8:15 pm55 °FPassing clouds.2 mph47%30.07 "Hg5 mi
7:45 pm57 °FPassing clouds.No wind48%30.07 "Hg5 mi
7:15 pm59 °FPassing clouds.No wind39%30.07 "Hg5 mi
6:45 pm61 °FPassing clouds.6 mph36%30.07 "Hg5 mi
6:15 pm61 °FScattered clouds.5 mph39%30.07 "Hg5 mi
5:45 pm63 °FPartly sunny.5 mph37%30.07 "Hg5 mi
5:15 pm63 °FBroken clouds.9 mph39%30.09 "Hg5 mi
4:45 pm64 °FBroken clouds.10 mph37%30.09 "Hg5 mi
4:15 pm64 °FPartly sunny.10 mph34%30.07 "Hg5 mi
3:45 pm66 °FPartly sunny.12 mph35%30.07 "Hg5 mi
3:15 pm66 °FPartly sunny.13 mph32%30.07 "Hg5 mi
2:45 pm66 °FPartly sunny.13 mph37%30.07 "HgN/A
2:15 pm68 °FPartly sunny.10 mph21%30.07 "HgN/A
1:45 pm70 °FPartly sunny.13 mph20%30.07 "HgN/A
1:15 pm70 °FPartly sunny.10 mph23%30.09 "HgN/A
12:45 pm70 °FPartly sunny.9 mph25%30.09 "HgN/A
12:15 pm68 °FPartly sunny.12 mph30%30.12 "Hg5 mi
11:45 am66 °FPartly sunny.7 mph37%30.15 "Hg4 mi
11:15 am64 °FPartly sunny.5 mph37%30.15 "Hg4 mi
10:45 am63 °FScattered clouds.3 mph39%30.18 "Hg4 mi
10:15 am63 °FScattered clouds.2 mph39%30.18 "Hg4 mi
9:45 am59 °FPartly sunny.3 mph45%30.21 "Hg3 mi
9:15 am57 °FBroken clouds.2 mph51%30.21 "Hg3 mi
8:45 am54 °FPartly sunny.No wind58%30.21 "Hg2 mi
7:45 am48 °FFog.3 mph71%30.18 "Hg3 mi
7:15 am45 °FFog.2 mph81%30.15 "Hg2 mi
6:45 am45 °FFog.5 mph76%30.15 "Hg3 mi
5:15 am46 °FPassing clouds.2 mph76%30.15 "Hg4 mi
4:45 am46 °FPassing clouds.2 mph76%30.12 "Hg4 mi
4:15 am46 °FPassing clouds.5 mph71%30.12 "Hg4 mi
Weather by CustomWeather, © 2024

See weather overview